createdAt,value
2023-03-18T00:02:33.522Z,45.00
2023-03-18T00:05:26.888Z,44.90
2023-03-18T00:08:19.863Z,45.00
2023-03-18T00:11:14.656Z,45.00
2023-03-18T00:14:08.619Z,44.90
2023-03-18T00:17:01.306Z,44.90
2023-03-18T00:19:55.634Z,44.90
2023-03-18T00:22:49.077Z,44.90
2023-03-18T00:25:43.930Z,44.90
2023-03-18T00:28:38.076Z,44.90
2023-03-18T00:31:31.942Z,45.00
2023-03-18T00:34:24.659Z,45.00
2023-03-18T00:37:30.329Z,45.30
2023-03-18T00:40:30.133Z,45.30
2023-03-18T00:43:29.332Z,45.00
2023-03-18T00:46:25.461Z,45.00
2023-03-18T00:49:19.040Z,45.00
2023-03-18T00:52:12.531Z,44.90
2023-03-18T00:55:08.757Z,45.00
2023-03-18T00:58:03.143Z,44.90
2023-03-18T01:00:57.033Z,44.90
2023-03-18T01:03:50.961Z,44.90
2023-03-18T01:06:43.415Z,44.90
2023-03-18T01:09:37.082Z,44.80
2023-03-18T01:12:32.074Z,44.80
2023-03-18T01:15:26.493Z,44.70
2023-03-18T01:18:19.873Z,44.70
2023-03-18T01:21:12.957Z,44.70
2023-03-18T01:24:06.551Z,44.70
2023-03-18T01:26:59.937Z,44.70
2023-03-18T01:29:54.567Z,44.70
2023-03-18T01:32:48.895Z,44.70
2023-03-18T01:35:42.004Z,44.60
2023-03-18T01:38:34.996Z,44.60
2023-03-18T01:41:28.651Z,44.60
2023-03-18T01:44:24.781Z,44.60
2023-03-18T01:47:21.326Z,44.70
2023-03-18T01:50:18.611Z,44.60
2023-03-18T01:53:14.774Z,44.70
2023-03-18T01:56:09.020Z,44.70
2023-03-18T01:59:01.978Z,44.70
2023-03-18T02:01:59.004Z,44.70
2023-03-18T02:04:55.303Z,44.70
2023-03-18T02:07:49.386Z,44.80
2023-03-18T02:10:43.169Z,44.90
2023-03-18T02:13:41.349Z,44.90
2023-03-18T02:16:39.973Z,45.00
2023-03-18T02:19:48.201Z,45.00
2023-03-18T02:22:46.613Z,45.10
2023-03-18T02:25:47.596Z,45.10
2023-03-18T02:28:44.964Z,45.10
2023-03-18T02:31:38.757Z,45.20
2023-03-18T02:34:32.722Z,45.30
2023-03-18T02:37:25.849Z,45.30
2023-03-18T02:40:24.430Z,45.40
2023-03-18T02:43:24.381Z,45.40
2023-03-18T02:46:34.084Z,45.40
2023-03-18T02:49:28.812Z,45.50
2023-03-18T02:52:21.835Z,45.60
2023-03-18T02:55:15.477Z,45.50
2023-03-18T02:58:09.098Z,45.70
2023-03-18T03:01:01.855Z,45.70
2023-03-18T03:03:56.357Z,45.70
2023-03-18T03:06:49.716Z,45.70
2023-03-18T03:09:42.928Z,45.70
2023-03-18T03:12:37.828Z,45.80
2023-03-18T03:15:31.053Z,45.80
2023-03-18T03:18:23.888Z,45.80
2023-03-18T03:21:18.207Z,45.90
2023-03-18T03:24:11.937Z,45.90
2023-03-18T03:27:04.923Z,46.00
2023-03-18T03:29:58.330Z,46.00
2023-03-18T03:32:51.737Z,46.00
2023-03-18T03:35:45.297Z,46.10
2023-03-18T03:38:41.450Z,46.10
2023-03-18T03:41:35.017Z,46.10
2023-03-18T03:44:27.848Z,46.10
2023-03-18T03:47:21.336Z,46.10
2023-03-18T03:50:15.790Z,46.10
2023-03-18T03:53:10.292Z,46.10
2023-03-18T03:56:07.491Z,46.10
2023-03-18T03:59:01.609Z,46.10
2023-03-18T04:01:54.877Z,46.10
2023-03-18T04:04:47.811Z,46.10
2023-03-18T04:07:42.106Z,46.20
2023-03-18T04:10:36.684Z,46.20
2023-03-18T04:13:31.106Z,46.20
2023-03-18T04:16:24.010Z,46.30
2023-03-18T04:19:16.746Z,46.30
2023-03-18T04:22:10.868Z,46.30
2023-03-18T04:25:04.013Z,46.30
2023-03-18T04:27:57.233Z,46.30
2023-03-18T04:30:52.191Z,46.30
2023-03-18T04:33:46.094Z,46.20
2023-03-18T04:36:38.748Z,46.20
2023-03-18T04:39:31.740Z,46.20
2023-03-18T04:42:24.837Z,46.20
2023-03-18T04:45:18.658Z,46.20
2023-03-18T04:48:12.865Z,46.20
2023-03-18T04:51:08.444Z,46.20
2023-03-18T04:54:02.249Z,46.20
2023-03-18T04:56:55.666Z,46.20
2023-03-18T04:59:48.567Z,46.10
2023-03-18T05:02:42.234Z,46.20
2023-03-18T05:05:38.824Z,46.10
2023-03-18T05:08:31.955Z,46.10
2023-03-18T05:11:25.209Z,46.10
2023-03-18T05:14:18.300Z,46.10
2023-03-18T05:17:15.629Z,46.10
2023-03-18T05:20:10.287Z,46.10
2023-03-18T05:23:05.793Z,46.00
2023-03-18T05:25:58.865Z,46.00
2023-03-18T05:28:52.470Z,46.00
2023-03-18T05:31:46.339Z,46.00
2023-03-18T05:34:43.100Z,46.10
2023-03-18T05:37:36.749Z,46.10
2023-03-18T05:40:31.490Z,46.10
2023-03-18T05:43:26.229Z,46.10
2023-03-18T05:46:18.934Z,46.10
2023-03-18T05:49:11.807Z,46.70
2023-03-18T05:52:05.566Z,46.20
2023-03-18T05:54:58.688Z,46.20
2023-03-18T05:57:53.204Z,46.20
2023-03-18T06:00:45.965Z,46.20
2023-03-18T06:03:38.990Z,46.20
2023-03-18T06:06:31.865Z,46.20
2023-03-18T06:09:25.726Z,46.20
2023-03-18T06:12:20.294Z,46.20
2023-03-18T06:15:15.109Z,46.20
2023-03-18T06:18:07.925Z,46.30
2023-03-18T06:21:01.111Z,46.30
2023-03-18T06:23:54.418Z,46.30
2023-03-18T06:26:47.834Z,46.30
2023-03-18T06:29:41.352Z,46.20
2023-03-18T06:32:36.730Z,46.30
2023-03-18T06:35:31.667Z,46.30
2023-03-18T06:38:25.473Z,46.30
2023-03-18T06:41:19.530Z,46.30
2023-03-18T06:44:13.578Z,46.30
2023-03-18T06:47:07.327Z,46.30
2023-03-18T06:50:02.198Z,46.30
2023-03-18T06:52:55.134Z,46.40
2023-03-18T06:55:48.333Z,46.30
2023-03-18T06:58:41.987Z,46.30
2023-03-18T07:01:36.044Z,46.40
2023-03-18T07:04:29.533Z,46.40
2023-03-18T07:07:24.699Z,46.40
2023-03-18T07:10:22.879Z,46.40
2023-03-18T07:13:16.285Z,46.50
2023-03-18T07:16:09.711Z,46.50
2023-03-18T07:19:04.059Z,46.50
2023-03-18T07:21:57.153Z,46.60
2023-03-18T07:24:52.361Z,46.60
2023-03-18T07:27:46.828Z,46.70
2023-03-18T07:30:39.924Z,46.70
2023-03-18T07:33:33.955Z,46.70
2023-03-18T07:36:28.097Z,46.70
2023-03-18T07:39:21.417Z,46.70
2023-03-18T07:42:16.609Z,46.70
2023-03-18T07:45:11.322Z,46.70
2023-03-18T07:48:05.447Z,46.60
2023-03-18T07:51:00.213Z,46.60
2023-03-18T07:53:53.371Z,47.10
2023-03-18T07:56:47.048Z,47.60
2023-03-18T07:59:41.734Z,48.00
2023-03-18T08:02:36.202Z,48.40
2023-03-18T08:05:29.205Z,48.40
2023-03-18T08:08:22.725Z,47.90
2023-03-18T08:11:16.235Z,48.40
2023-03-18T08:14:09.195Z,48.50
2023-03-18T08:17:03.580Z,48.20
2023-03-18T08:19:57.272Z,48.40
2023-03-18T08:22:50.675Z,48.20
2023-03-18T08:25:44.165Z,48.00
2023-03-18T08:28:36.953Z,48.00
2023-03-18T08:31:30.045Z,48.00
2023-03-18T08:34:24.377Z,47.70
2023-03-18T08:37:16.992Z,47.50
2023-03-18T08:40:11.965Z,47.40
2023-03-18T08:43:05.501Z,47.30
2023-03-18T08:45:59.181Z,47.20
2023-03-18T08:48:54.210Z,46.90
2023-03-18T08:51:48.401Z,46.80
2023-03-18T08:54:41.952Z,46.70
2023-03-18T08:57:35.482Z,46.50
2023-03-18T09:00:29.349Z,46.50
2023-03-18T09:03:22.572Z,46.50
2023-03-18T09:06:16.021Z,46.50
2023-03-18T09:09:11.636Z,46.50
2023-03-18T09:12:06.633Z,46.50
2023-03-18T09:14:59.872Z,46.70
2023-03-18T09:18:08.374Z,46.80
2023-03-18T09:21:04.897Z,47.00
2023-03-18T09:23:59.009Z,46.10
2023-03-18T09:26:53.696Z,46.30
2023-03-18T09:29:50.789Z,46.00
2023-03-18T09:32:44.719Z,45.60
2023-03-18T09:35:38.855Z,45.50
2023-03-18T09:38:32.610Z,45.40
2023-03-18T09:41:38.676Z,45.30
2023-03-18T09:44:36.930Z,45.30
2023-03-18T09:47:56.759Z,45.10
2023-03-18T09:51:04.145Z,45.00
2023-03-18T09:54:01.624Z,45.00
2023-03-18T09:56:55.493Z,45.50
2023-03-18T09:59:55.445Z,46.50
2023-03-18T10:02:53.220Z,46.30
2023-03-18T10:05:50.554Z,46.10
2023-03-18T10:08:49.817Z,45.70
2023-03-18T10:11:44.751Z,45.60
2023-03-18T10:14:43.432Z,46.50
2023-03-18T10:17:42.429Z,45.60
2023-03-18T10:20:43.634Z,46.00
2023-03-18T10:23:50.043Z,46.00
2023-03-18T10:26:48.730Z,45.20
2023-03-18T10:29:46.647Z,44.50
2023-03-18T10:32:54.069Z,44.70
2023-03-18T10:35:54.734Z,45.00
2023-03-18T10:38:50.070Z,44.80
2023-03-18T10:41:44.367Z,44.70
2023-03-18T10:44:41.936Z,44.80
2023-03-18T10:47:40.875Z,44.90
2023-03-18T10:50:38.061Z,44.80
2023-03-18T10:53:35.477Z,44.90
2023-03-18T10:56:28.679Z,45.00
2023-03-18T10:59:24.467Z,45.10
2023-03-18T11:02:20.669Z,45.20
2023-03-18T11:05:23.297Z,45.40
2023-03-18T11:08:34.440Z,45.50
2023-03-18T11:11:32.790Z,45.70
2023-03-18T11:14:31.307Z,45.70
2023-03-18T11:17:29.146Z,45.90
2023-03-18T11:20:25.292Z,45.90
2023-03-18T11:23:22.794Z,46.00
2023-03-18T11:26:22.843Z,46.10
2023-03-18T11:29:22.221Z,46.20
2023-03-18T11:32:26.078Z,46.20
2023-03-18T11:35:22.267Z,46.30
2023-03-18T11:38:22.210Z,46.40
2023-03-18T11:41:17.250Z,46.40
2023-03-18T11:44:19.485Z,46.50
2023-03-18T11:47:18.646Z,46.50
2023-03-18T11:50:20.979Z,46.60
2023-03-18T11:53:20.420Z,46.60
2023-03-18T11:56:21.455Z,44.50
2023-03-18T11:59:36.973Z,43.00
2023-03-18T12:02:51.422Z,41.80
2023-03-18T12:05:55.005Z,41.10
2023-03-18T12:09:01.569Z,41.30
2023-03-18T12:12:06.676Z,41.60
2023-03-18T12:15:11.567Z,41.40
2023-03-18T12:18:16.203Z,41.40
2023-03-18T12:21:28.221Z,42.00
2023-03-18T12:24:36.620Z,42.30
2023-03-18T12:27:41.592Z,42.30
2023-03-18T12:30:48.961Z,42.10
2023-03-18T12:33:56.517Z,41.70
2023-03-18T12:37:05.619Z,42.40
2023-03-18T12:40:18.644Z,42.30
2023-03-18T12:43:32.956Z,42.40
2023-03-18T12:46:33.065Z,42.40
2023-03-18T12:49:31.365Z,41.90
2023-03-18T12:52:30.614Z,42.10
2023-03-18T12:55:29.118Z,42.00
2023-03-18T12:58:27.130Z,42.30
2023-03-18T13:01:25.059Z,42.60
2023-03-18T13:04:23.230Z,42.60
2023-03-18T13:07:22.905Z,42.20
2023-03-18T13:10:23.436Z,42.40
2023-03-18T13:13:17.761Z,42.20
2023-03-18T13:16:12.945Z,42.30
2023-03-18T13:19:06.702Z,42.20
2023-03-18T13:22:16.868Z,42.10
2023-03-18T13:25:21.826Z,42.50
2023-03-18T13:28:45.213Z,42.60
2023-03-18T13:31:49.642Z,42.30
2023-03-18T13:35:16.244Z,42.60
2023-03-18T13:38:24.165Z,42.40
2023-03-18T13:41:43.109Z,42.50
2023-03-18T13:44:43.842Z,42.60
2023-03-18T13:47:39.896Z,42.60
2023-03-18T13:50:35.664Z,42.70
2023-03-18T13:53:33.436Z,42.70
2023-03-18T13:56:29.992Z,42.70
2023-03-18T13:59:46.727Z,42.80
2023-03-18T14:02:45.797Z,42.90
2023-03-18T14:05:42.436Z,42.80
2023-03-18T14:08:52.576Z,42.80
2023-03-18T14:11:47.987Z,42.80
2023-03-18T14:15:09.375Z,42.80
2023-03-18T14:18:02.849Z,42.80
2023-03-18T14:21:00.481Z,42.90
2023-03-18T14:24:13.448Z,42.80
2023-03-18T14:27:20.170Z,42.80
2023-03-18T14:30:46.786Z,42.70
2023-03-18T14:33:59.021Z,42.80
2023-03-18T14:37:27.776Z,42.90
2023-03-18T14:40:22.995Z,42.40
2023-03-18T14:43:23.845Z,42.80
2023-03-18T14:46:19.548Z,43.10
2023-03-18T14:49:36.296Z,43.40
2023-03-18T14:52:33.220Z,43.60
2023-03-18T14:55:31.981Z,43.80
2023-03-18T14:58:26.233Z,43.90
2023-03-18T15:01:23.954Z,43.70
2023-03-18T15:04:22.118Z,43.90
2023-03-18T15:07:15.944Z,43.80
2023-03-18T15:10:11.684Z,43.80
2023-03-18T15:13:07.999Z,44.10
2023-03-18T15:16:05.477Z,44.30
2023-03-18T15:18:58.397Z,44.40
2023-03-18T15:21:51.651Z,44.60
2023-03-18T15:24:44.730Z,44.70
2023-03-18T15:27:38.822Z,44.70
2023-03-18T15:30:34.790Z,44.80
2023-03-18T15:33:35.687Z,44.80
2023-03-18T15:36:29.037Z,44.90
2023-03-18T15:39:30.665Z,45.00
2023-03-18T15:42:24.602Z,45.10
2023-03-18T15:45:21.370Z,45.10
2023-03-18T15:48:24.690Z,45.10
2023-03-18T15:51:30.933Z,45.20
2023-03-18T15:54:28.587Z,45.20
2023-03-18T15:57:30.654Z,45.30
2023-03-18T16:00:23.677Z,45.40
2023-03-18T16:03:23.344Z,45.50
2023-03-18T16:06:17.820Z,45.50
2023-03-18T16:09:17.027Z,45.40
2023-03-18T16:12:14.308Z,45.20
2023-03-18T16:15:14.233Z,45.10
2023-03-18T16:18:10.614Z,45.10
2023-03-18T16:21:05.227Z,45.00
2023-03-18T16:23:59.109Z,45.00
2023-03-18T16:26:53.159Z,45.00
2023-03-18T16:29:46.497Z,44.90
2023-03-18T16:32:39.537Z,44.90
2023-03-18T16:35:36.104Z,45.50
2023-03-18T16:38:31.270Z,44.90
2023-03-18T16:41:25.661Z,44.80
2023-03-18T16:44:21.198Z,44.80
2023-03-18T16:47:22.684Z,44.90
2023-03-18T16:50:21.000Z,44.90
2023-03-18T16:53:18.410Z,44.90
2023-03-18T16:56:17.102Z,44.90
2023-03-18T16:59:13.603Z,44.90
2023-03-18T17:02:16.141Z,44.90
2023-03-18T17:05:15.610Z,44.90
2023-03-18T17:08:10.786Z,44.90
2023-03-18T17:11:05.672Z,44.90
2023-03-18T17:13:59.729Z,44.90
2023-03-18T17:16:52.785Z,45.00
2023-03-18T17:19:45.839Z,45.00
2023-03-18T17:22:39.816Z,45.00
2023-03-18T17:25:34.109Z,45.60
2023-03-18T17:28:33.175Z,45.00
2023-03-18T17:31:27.773Z,45.10
2023-03-18T17:34:21.426Z,45.10
2023-03-18T17:37:14.308Z,45.00
2023-03-18T17:40:08.514Z,45.10
2023-03-18T17:43:01.614Z,45.10
2023-03-18T17:45:55.188Z,45.10
2023-03-18T17:48:49.757Z,45.10
2023-03-18T17:51:43.538Z,45.20
2023-03-18T17:54:36.433Z,45.30
2023-03-18T17:57:30.192Z,45.40
2023-03-18T18:00:26.295Z,45.60
2023-03-18T18:03:24.238Z,45.60
2023-03-18T18:06:20.074Z,45.70
2023-03-18T18:09:15.844Z,45.80
2023-03-18T18:12:15.459Z,46.00
2023-03-18T18:15:18.014Z,46.40
2023-03-18T18:18:23.067Z,46.40
2023-03-18T18:21:20.392Z,46.50
2023-03-18T18:24:22.656Z,46.50
2023-03-18T18:27:16.271Z,46.50
2023-03-18T18:30:15.392Z,46.50
2023-03-18T18:33:08.933Z,46.50
2023-03-18T18:36:03.370Z,46.60
2023-03-18T18:38:58.213Z,46.60
2023-03-18T18:41:52.868Z,46.90
2023-03-18T18:44:46.660Z,47.10
2023-03-18T18:47:39.864Z,47.10
2023-03-18T18:50:35.265Z,47.10
2023-03-18T18:53:30.963Z,47.20
2023-03-18T18:56:32.662Z,47.20
2023-03-18T18:59:30.556Z,47.10
2023-03-18T19:02:31.133Z,46.90
2023-03-18T19:05:24.868Z,46.70
2023-03-18T19:08:24.923Z,46.60
2023-03-18T19:11:18.595Z,46.50
2023-03-18T19:14:25.311Z,46.40
2023-03-18T19:17:21.025Z,46.40
2023-03-18T19:20:28.204Z,46.30
2023-03-18T19:23:26.705Z,46.30
2023-03-18T19:26:21.267Z,46.20
2023-03-18T19:29:14.493Z,46.20
2023-03-18T19:32:15.280Z,46.10
2023-03-18T19:35:11.008Z,46.10
2023-03-18T19:38:04.904Z,46.10
2023-03-18T19:40:57.565Z,46.10
2023-03-18T19:43:51.360Z,46.70
2023-03-18T19:46:45.465Z,46.10
2023-03-18T19:49:39.736Z,46.00
2023-03-18T19:52:33.746Z,46.50
2023-03-18T19:55:27.571Z,45.90
2023-03-18T19:58:25.263Z,45.90
2023-03-18T20:01:18.805Z,45.80
2023-03-18T20:04:16.352Z,45.90
2023-03-18T20:07:11.070Z,45.90
2023-03-18T20:10:05.585Z,45.80
2023-03-18T20:12:58.959Z,45.70
2023-03-18T20:15:52.650Z,45.70
2023-03-18T20:18:45.959Z,45.60
2023-03-18T20:21:39.656Z,45.60
2023-03-18T20:24:34.091Z,45.60
2023-03-18T20:27:27.804Z,45.60
2023-03-18T20:30:28.102Z,45.50
2023-03-18T20:33:22.186Z,45.50
2023-03-18T20:36:18.345Z,45.50
2023-03-18T20:39:20.110Z,45.40
2023-03-18T20:42:17.202Z,45.40
2023-03-18T20:45:15.702Z,45.50
2023-03-18T20:48:08.827Z,45.50
2023-03-18T20:51:02.480Z,45.40
2023-03-18T20:53:56.211Z,45.40
2023-03-18T20:56:49.429Z,45.40
2023-03-18T20:59:44.258Z,45.40
2023-03-18T21:02:38.898Z,45.40
2023-03-18T21:05:32.063Z,45.40
2023-03-18T21:08:26.978Z,45.40
2023-03-18T21:11:23.224Z,45.40
2023-03-18T21:14:16.599Z,45.40
2023-03-18T21:17:18.169Z,45.40
2023-03-18T21:20:22.024Z,45.40
2023-03-18T21:23:20.997Z,45.40
2023-03-18T21:26:13.728Z,45.40
2023-03-18T21:29:06.660Z,45.30
2023-03-18T21:31:59.913Z,45.40
2023-03-18T21:34:54.885Z,45.30
2023-03-18T21:37:47.626Z,45.30
2023-03-18T21:40:41.458Z,45.40
2023-03-18T21:43:36.505Z,45.30
2023-03-18T21:46:30.678Z,45.40
2023-03-18T21:49:23.796Z,45.30
2023-03-18T21:52:28.209Z,45.40
2023-03-18T21:55:22.345Z,45.40
2023-03-18T21:58:18.017Z,45.30
2023-03-18T22:01:17.248Z,45.30
2023-03-18T22:04:11.371Z,45.40
2023-03-18T22:07:04.544Z,45.30
2023-03-18T22:10:00.716Z,45.30
2023-03-18T22:12:53.626Z,45.30
2023-03-18T22:15:48.106Z,45.30
2023-03-18T22:18:42.268Z,45.30
2023-03-18T22:21:35.879Z,45.30
2023-03-18T22:24:28.823Z,45.40
2023-03-18T22:27:24.965Z,45.30
2023-03-18T22:30:18.462Z,45.40
2023-03-18T22:33:20.596Z,45.30
2023-03-18T22:36:14.667Z,45.40
2023-03-18T22:39:07.730Z,45.30
2023-03-18T22:42:00.835Z,45.30
2023-03-18T22:44:55.482Z,45.30
2023-03-18T22:47:49.245Z,45.30
2023-03-18T22:50:42.947Z,45.30
2023-03-18T22:53:38.909Z,45.20
2023-03-18T22:56:32.350Z,45.30
2023-03-18T22:59:25.732Z,45.30
2023-03-18T23:02:22.944Z,45.30
2023-03-18T23:05:18.221Z,45.20
2023-03-18T23:08:11.793Z,45.30
2023-03-18T23:11:04.846Z,45.10
2023-03-18T23:13:58.283Z,45.20
2023-03-18T23:16:51.488Z,45.20
2023-03-18T23:19:46.492Z,45.10
2023-03-18T23:22:39.861Z,45.10
2023-03-18T23:25:33.365Z,45.20
2023-03-18T23:28:27.253Z,45.10
2023-03-18T23:31:21.116Z,45.10
2023-03-18T23:34:14.808Z,45.10
2023-03-18T23:37:09.750Z,45.80
2023-03-18T23:40:03.769Z,45.20
2023-03-18T23:42:56.784Z,45.10
2023-03-18T23:45:49.913Z,45.10
2023-03-18T23:48:42.809Z,45.10
2023-03-18T23:51:35.928Z,45.10
2023-03-18T23:54:30.765Z,45.10
2023-03-18T23:57:23.878Z,45.20
